sensor_id;sensor_type;location;lat;lon;timestamp;P1;durP1;ratioP1;P2;durP2;ratioP2
6529;SDS011;3298;42.688;23.366;2022-08-05T00:02:03;4.43;;;4.23;;
6529;SDS011;3298;42.688;23.366;2022-08-05T00:04:30;5.63;;;3.80;;
6529;SDS011;3298;42.688;23.366;2022-08-05T00:06:57;4.30;;;4.00;;
6529;SDS011;3298;42.688;23.366;2022-08-05T00:09:25;6.60;;;4.50;;
6529;SDS011;3298;42.688;23.366;2022-08-05T00:11:51;4.67;;;4.33;;
6529;SDS011;3298;42.688;23.366;2022-08-05T00:14:18;4.50;;;4.13;;
6529;SDS011;3298;42.688;23.366;2022-08-05T00:16:45;4.17;;;3.87;;
6529;SDS011;3298;42.688;23.366;2022-08-05T00:19:12;3.83;;;3.53;;
6529;SDS011;3298;42.688;23.366;2022-08-05T00:21:39;3.80;;;3.60;;
6529;SDS011;3298;42.688;23.366;2022-08-05T00:24:06;4.43;;;3.90;;
6529;SDS011;3298;42.688;23.366;2022-08-05T00:26:34;4.30;;;3.97;;
6529;SDS011;3298;42.688;23.366;2022-08-05T00:29:01;7.80;;;4.37;;
6529;SDS011;3298;42.688;23.366;2022-08-05T00:31:27;6.03;;;4.67;;
6529;SDS011;3298;42.688;23.366;2022-08-05T00:33:54;5.70;;;3.63;;
6529;SDS011;3298;42.688;23.366;2022-08-05T00:36:21;4.20;;;3.80;;
6529;SDS011;3298;42.688;23.366;2022-08-05T00:38:48;3.93;;;3.60;;
6529;SDS011;3298;42.688;23.366;2022-08-05T00:41:25;4.63;;;4.17;;
6529;SDS011;3298;42.688;23.366;2022-08-05T00:43:54;4.10;;;3.90;;
6529;SDS011;3298;42.688;23.366;2022-08-05T00:46:21;4.07;;;3.77;;
6529;SDS011;3298;42.688;23.366;2022-08-05T00:48:47;4.10;;;3.90;;
6529;SDS011;3298;42.688;23.366;2022-08-05T00:51:14;4.67;;;3.90;;
6529;SDS011;3298;42.688;23.366;2022-08-05T00:53:41;3.70;;;3.40;;
6529;SDS011;3298;42.688;23.366;2022-08-05T00:56:08;4.50;;;4.20;;
6529;SDS011;3298;42.688;23.366;2022-08-05T00:58:35;4.73;;;4.30;;
6529;SDS011;3298;42.688;23.366;2022-08-05T01:01:04;4.07;;;3.77;;
6529;SDS011;3298;42.688;23.366;2022-08-05T01:03:31;4.20;;;4.00;;
6529;SDS011;3298;42.688;23.366;2022-08-05T01:05:58;5.03;;;4.40;;
6529;SDS011;3298;42.688;23.366;2022-08-05T01:08:25;4.30;;;4.10;;
6529;SDS011;3298;42.688;23.366;2022-08-05T01:10:53;4.53;;;4.33;;
6529;SDS011;3298;42.688;23.366;2022-08-05T01:13:22;5.00;;;4.30;;
6529;SDS011;3298;42.688;23.366;2022-08-05T01:15:55;3.93;;;3.70;;
6529;SDS011;3298;42.688;23.366;2022-08-05T01:18:28;4.77;;;4.07;;
6529;SDS011;3298;42.688;23.366;2022-08-05T01:21:03;3.87;;;3.67;;
6529;SDS011;3298;42.688;23.366;2022-08-05T01:23:39;4.37;;;4.03;;
6529;SDS011;3298;42.688;23.366;2022-08-05T01:26:20;4.77;;;4.37;;
6529;SDS011;3298;42.688;23.366;2022-08-05T01:28:59;4.43;;;4.03;;
6529;SDS011;3298;42.688;23.366;2022-08-05T01:31:32;4.20;;;4.00;;
6529;SDS011;3298;42.688;23.366;2022-08-05T01:34:03;4.43;;;4.23;;
6529;SDS011;3298;42.688;23.366;2022-08-05T01:36:35;5.87;;;4.63;;
6529;SDS011;3298;42.688;23.366;2022-08-05T01:39:06;4.87;;;4.40;;
6529;SDS011;3298;42.688;23.366;2022-08-05T01:41:33;4.93;;;4.63;;
6529;SDS011;3298;42.688;23.366;2022-08-05T01:44:03;4.40;;;3.57;;
6529;SDS011;3298;42.688;23.366;2022-08-05T01:46:33;4.13;;;3.93;;
6529;SDS011;3298;42.688;23.366;2022-08-05T01:49:01;4.73;;;4.20;;
6529;SDS011;3298;42.688;23.366;2022-08-05T01:51:29;4.37;;;4.10;;
6529;SDS011;3298;42.688;23.366;2022-08-05T01:53:56;3.93;;;3.63;;
6529;SDS011;3298;42.688;23.366;2022-08-05T01:56:26;3.47;;;3.20;;
6529;SDS011;3298;42.688;23.366;2022-08-05T01:58:55;4.30;;;4.00;;
6529;SDS011;3298;42.688;23.366;2022-08-05T02:01:25;3.73;;;3.53;;
6529;SDS011;3298;42.688;23.366;2022-08-05T02:03:54;4.90;;;2.80;;
6529;SDS011;3298;42.688;23.366;2022-08-05T02:06:22;5.60;;;3.60;;
6529;SDS011;3298;42.688;23.366;2022-08-05T02:08:49;3.27;;;3.17;;
6529;SDS011;3298;42.688;23.366;2022-08-05T02:11:16;4.37;;;3.03;;
6529;SDS011;3298;42.688;23.366;2022-08-05T02:13:46;3.33;;;3.13;;
6529;SDS011;3298;42.688;23.366;2022-08-05T02:16:20;7.03;;;3.60;;
6529;SDS011;3298;42.688;23.366;2022-08-05T02:18:50;4.47;;;4.07;;
6529;SDS011;3298;42.688;23.366;2022-08-05T02:21:21;4.47;;;3.00;;
6529;SDS011;3298;42.688;23.366;2022-08-05T02:23:52;3.50;;;3.30;;
6529;SDS011;3298;42.688;23.366;2022-08-05T02:26:23;3.63;;;3.33;;
6529;SDS011;3298;42.688;23.366;2022-08-05T02:28:58;3.33;;;3.13;;
6529;SDS011;3298;42.688;23.366;2022-08-05T02:31:27;5.13;;;3.60;;
6529;SDS011;3298;42.688;23.366;2022-08-05T02:33:58;5.77;;;4.73;;
6529;SDS011;3298;42.688;23.366;2022-08-05T02:36:30;3.00;;;2.90;;
6529;SDS011;3298;42.688;23.366;2022-08-05T02:39:00;3.50;;;3.30;;
6529;SDS011;3298;42.688;23.366;2022-08-05T02:41:30;3.27;;;3.07;;
6529;SDS011;3298;42.688;23.366;2022-08-05T02:43:58;3.13;;;2.93;;
6529;SDS011;3298;42.688;23.366;2022-08-05T02:46:27;3.73;;;3.37;;
6529;SDS011;3298;42.688;23.366;2022-08-05T02:48:54;3.53;;;3.23;;
6529;SDS011;3298;42.688;23.366;2022-08-05T02:51:23;3.90;;;3.60;;
6529;SDS011;3298;42.688;23.366;2022-08-05T02:53:51;3.90;;;3.70;;
6529;SDS011;3298;42.688;23.366;2022-08-05T02:56:19;3.93;;;3.10;;
6529;SDS011;3298;42.688;23.366;2022-08-05T02:58:46;4.37;;;3.90;;
6529;SDS011;3298;42.688;23.366;2022-08-05T03:01:16;4.10;;;3.77;;
6529;SDS011;3298;42.688;23.366;2022-08-05T03:03:49;4.40;;;4.00;;
6529;SDS011;3298;42.688;23.366;2022-08-05T03:06:19;4.37;;;3.97;;
6529;SDS011;3298;42.688;23.366;2022-08-05T03:08:49;4.07;;;3.77;;
6529;SDS011;3298;42.688;23.366;2022-08-05T03:11:17;8.00;;;4.30;;
6529;SDS011;3298;42.688;23.366;2022-08-05T03:13:45;3.90;;;3.70;;
6529;SDS011;3298;42.688;23.366;2022-08-05T03:16:12;4.43;;;4.13;;
6529;SDS011;3298;42.688;23.366;2022-08-05T03:18:39;3.90;;;3.60;;
6529;SDS011;3298;42.688;23.366;2022-08-05T03:21:05;4.30;;;3.97;;
6529;SDS011;3298;42.688;23.366;2022-08-05T03:23:33;4.03;;;3.63;;
6529;SDS011;3298;42.688;23.366;2022-08-05T03:26:02;5.30;;;4.00;;
6529;SDS011;3298;42.688;23.366;2022-08-05T03:28:30;4.83;;;4.13;;
6529;SDS011;3298;42.688;23.366;2022-08-05T03:30:58;3.90;;;3.70;;
6529;SDS011;3298;42.688;23.366;2022-08-05T03:33:26;4.43;;;4.03;;
6529;SDS011;3298;42.688;23.366;2022-08-05T03:35:54;5.60;;;3.70;;
6529;SDS011;3298;42.688;23.366;2022-08-05T03:38:21;6.10;;;3.67;;
6529;SDS011;3298;42.688;23.366;2022-08-05T03:40:48;7.47;;;4.13;;
6529;SDS011;3298;42.688;23.366;2022-08-05T03:43:18;4.30;;;3.80;;
6529;SDS011;3298;42.688;23.366;2022-08-05T03:45:48;4.10;;;3.77;;
6529;SDS011;3298;42.688;23.366;2022-08-05T03:48:15;4.40;;;4.00;;
6529;SDS011;3298;42.688;23.366;2022-08-05T03:50:44;3.97;;;3.77;;
6529;SDS011;3298;42.688;23.366;2022-08-05T03:53:18;4.80;;;4.50;;
6529;SDS011;3298;42.688;23.366;2022-08-05T03:55:51;4.10;;;3.80;;
6529;SDS011;3298;42.688;23.366;2022-08-05T03:58:23;4.97;;;4.47;;
6529;SDS011;3298;42.688;23.366;2022-08-05T04:00:53;6.37;;;4.90;;
6529;SDS011;3298;42.688;23.366;2022-08-05T04:03:22;10.03;;;4.80;;
6529;SDS011;3298;42.688;23.366;2022-08-05T04:05:50;7.80;;;4.60;;
6529;SDS011;3298;42.688;23.366;2022-08-05T04:08:17;14.77;;;4.50;;
6529;SDS011;3298;42.688;23.366;2022-08-05T04:10:44;4.73;;;4.20;;
6529;SDS011;3298;42.688;23.366;2022-08-05T04:13:11;5.23;;;4.30;;
6529;SDS011;3298;42.688;23.366;2022-08-05T04:15:40;4.80;;;4.07;;
6529;SDS011;3298;42.688;23.366;2022-08-05T04:18:06;4.70;;;3.60;;
6529;SDS011;3298;42.688;23.366;2022-08-05T04:20:33;4.27;;;3.93;;
6529;SDS011;3298;42.688;23.366;2022-08-05T04:23:00;9.20;;;4.30;;
6529;SDS011;3298;42.688;23.366;2022-08-05T04:25:27;4.53;;;4.23;;
6529;SDS011;3298;42.688;23.366;2022-08-05T04:27:53;4.40;;;3.80;;
6529;SDS011;3298;42.688;23.366;2022-08-05T04:30:21;4.80;;;4.47;;
6529;SDS011;3298;42.688;23.366;2022-08-05T04:32:49;6.40;;;5.67;;
6529;SDS011;3298;42.688;23.366;2022-08-05T04:35:16;4.50;;;4.10;;
6529;SDS011;3298;42.688;23.366;2022-08-05T04:37:43;5.97;;;4.67;;
6529;SDS011;3298;42.688;23.366;2022-08-05T04:40:10;4.77;;;4.17;;
6529;SDS011;3298;42.688;23.366;2022-08-05T04:42:37;4.80;;;4.40;;
6529;SDS011;3298;42.688;23.366;2022-08-05T04:45:04;5.47;;;3.97;;
6529;SDS011;3298;42.688;23.366;2022-08-05T04:47:31;4.20;;;3.93;;
6529;SDS011;3298;42.688;23.366;2022-08-05T04:50:00;6.40;;;4.33;;
6529;SDS011;3298;42.688;23.366;2022-08-05T04:52:26;4.63;;;4.20;;
6529;SDS011;3298;42.688;23.366;2022-08-05T04:54:53;5.07;;;4.53;;
6529;SDS011;3298;42.688;23.366;2022-08-05T04:57:20;5.17;;;4.77;;
6529;SDS011;3298;42.688;23.366;2022-08-05T04:59:47;5.73;;;4.47;;
6529;SDS011;3298;42.688;23.366;2022-08-05T05:02:14;4.80;;;4.33;;
6529;SDS011;3298;42.688;23.366;2022-08-05T05:04:42;4.57;;;4.23;;
6529;SDS011;3298;42.688;23.366;2022-08-05T05:07:10;6.87;;;4.43;;
6529;SDS011;3298;42.688;23.366;2022-08-05T05:09:37;5.23;;;4.13;;
6529;SDS011;3298;42.688;23.366;2022-08-05T05:12:04;4.47;;;4.17;;
6529;SDS011;3298;42.688;23.366;2022-08-05T05:14:31;3.93;;;3.63;;
6529;SDS011;3298;42.688;23.366;2022-08-05T05:16:58;4.07;;;3.67;;
6529;SDS011;3298;42.688;23.366;2022-08-05T05:19:24;3.70;;;3.50;;
6529;SDS011;3298;42.688;23.366;2022-08-05T05:21:51;3.53;;;3.17;;
6529;SDS011;3298;42.688;23.366;2022-08-05T05:24:19;3.73;;;3.40;;
6529;SDS011;3298;42.688;23.366;2022-08-05T05:26:46;3.63;;;3.40;;
6529;SDS011;3298;42.688;23.366;2022-08-05T05:29:13;9.53;;;3.60;;
6529;SDS011;3298;42.688;23.366;2022-08-05T05:31:40;68.35;;;10.88;;
6529;SDS011;3298;42.688;23.366;2022-08-05T05:34:07;19.17;;;5.30;;
6529;SDS011;3298;42.688;23.366;2022-08-05T05:36:34;7.13;;;4.10;;
6529;SDS011;3298;42.688;23.366;2022-08-05T05:39:01;4.60;;;4.30;;
6529;SDS011;3298;42.688;23.366;2022-08-05T05:41:29;4.65;;;3.90;;
6529;SDS011;3298;42.688;23.366;2022-08-05T05:43:55;5.40;;;4.80;;
6529;SDS011;3298;42.688;23.366;2022-08-05T05:46:22;5.20;;;4.70;;
6529;SDS011;3298;42.688;23.366;2022-08-05T05:48:49;6.38;;;4.38;;
6529;SDS011;3298;42.688;23.366;2022-08-05T05:51:19;6.13;;;4.20;;
6529;SDS011;3298;42.688;23.366;2022-08-05T05:53:47;5.47;;;4.38;;
6529;SDS011;3298;42.688;23.366;2022-08-05T05:56:14;5.85;;;4.13;;
6529;SDS011;3298;42.688;23.366;2022-08-05T05:58:42;6.53;;;4.50;;
6529;SDS011;3298;42.688;23.366;2022-08-05T06:01:11;5.45;;;5.05;;
6529;SDS011;3298;42.688;23.366;2022-08-05T06:03:38;10.73;;;4.70;;
6529;SDS011;3298;42.688;23.366;2022-08-05T06:06:05;5.00;;;4.57;;
6529;SDS011;3298;42.688;23.366;2022-08-05T06:08:32;4.27;;;4.07;;
6529;SDS011;3298;42.688;23.366;2022-08-05T06:10:59;6.07;;;5.20;;
6529;SDS011;3298;42.688;23.366;2022-08-05T06:13:26;6.33;;;5.63;;
6529;SDS011;3298;42.688;23.366;2022-08-05T06:15:54;8.73;;;5.00;;
6529;SDS011;3298;42.688;23.366;2022-08-05T06:18:21;5.63;;;4.80;;
6529;SDS011;3298;42.688;23.366;2022-08-05T06:20:48;6.37;;;5.67;;
6529;SDS011;3298;42.688;23.366;2022-08-05T06:23:15;8.20;;;5.07;;
6529;SDS011;3298;42.688;23.366;2022-08-05T06:25:41;9.80;;;6.80;;
6529;SDS011;3298;42.688;23.366;2022-08-05T06:28:08;8.00;;;5.83;;
6529;SDS011;3298;42.688;23.366;2022-08-05T06:30:35;6.13;;;5.53;;
6529;SDS011;3298;42.688;23.366;2022-08-05T06:33:03;5.83;;;5.33;;
6529;SDS011;3298;42.688;23.366;2022-08-05T06:35:30;6.40;;;5.27;;
6529;SDS011;3298;42.688;23.366;2022-08-05T06:37:57;5.73;;;5.33;;
6529;SDS011;3298;42.688;23.366;2022-08-05T06:40:23;6.07;;;5.63;;
6529;SDS011;3298;42.688;23.366;2022-08-05T06:42:50;5.50;;;5.10;;
6529;SDS011;3298;42.688;23.366;2022-08-05T06:45:17;6.23;;;5.10;;
6529;SDS011;3298;42.688;23.366;2022-08-05T06:47:44;8.97;;;4.80;;
6529;SDS011;3298;42.688;23.366;2022-08-05T06:50:12;4.97;;;4.67;;
6529;SDS011;3298;42.688;23.366;2022-08-05T06:52:39;5.07;;;4.77;;
6529;SDS011;3298;42.688;23.366;2022-08-05T06:55:06;4.97;;;4.47;;
6529;SDS011;3298;42.688;23.366;2022-08-05T06:57:33;16.13;;;5.30;;
6529;SDS011;3298;42.688;23.366;2022-08-05T07:00:00;7.30;;;4.90;;
6529;SDS011;3298;42.688;23.366;2022-08-05T07:02:27;6.37;;;5.87;;
6529;SDS011;3298;42.688;23.366;2022-08-05T07:04:54;7.90;;;4.57;;
6529;SDS011;3298;42.688;23.366;2022-08-05T07:07:22;5.13;;;4.73;;
6529;SDS011;3298;42.688;23.366;2022-08-05T07:09:49;6.07;;;5.57;;
6529;SDS011;3298;42.688;23.366;2022-08-05T07:12:16;9.77;;;6.27;;
6529;SDS011;3298;42.688;23.366;2022-08-05T07:14:56;7.90;;;5.50;;
6529;SDS011;3298;42.688;23.366;2022-08-05T07:17:40;9.30;;;4.17;;
6529;SDS011;3298;42.688;23.366;2022-08-05T07:20:07;7.77;;;4.87;;
6529;SDS011;3298;42.688;23.366;2022-08-05T07:22:36;5.23;;;4.67;;
6529;SDS011;3298;42.688;23.366;2022-08-05T07:25:03;4.93;;;4.60;;
6529;SDS011;3298;42.688;23.366;2022-08-05T07:27:31;11.97;;;5.10;;
6529;SDS011;3298;42.688;23.366;2022-08-05T07:29:58;5.17;;;4.80;;
6529;SDS011;3298;42.688;23.366;2022-08-05T07:32:24;6.23;;;4.97;;
6529;SDS011;3298;42.688;23.366;2022-08-05T07:34:51;5.80;;;5.13;;
6529;SDS011;3298;42.688;23.366;2022-08-05T07:37:18;7.23;;;4.40;;
6529;SDS011;3298;42.688;23.366;2022-08-05T07:39:47;4.13;;;3.83;;
6529;SDS011;3298;42.688;23.366;2022-08-05T07:42:13;4.50;;;4.10;;
6529;SDS011;3298;42.688;23.366;2022-08-05T07:44:40;6.77;;;4.20;;
6529;SDS011;3298;42.688;23.366;2022-08-05T07:47:07;4.93;;;4.33;;
6529;SDS011;3298;42.688;23.366;2022-08-05T07:49:34;13.73;;;3.70;;
6529;SDS011;3298;42.688;23.366;2022-08-05T07:52:00;4.53;;;3.60;;
6529;SDS011;3298;42.688;23.366;2022-08-05T07:54:27;7.83;;;4.43;;
6529;SDS011;3298;42.688;23.366;2022-08-05T07:56:55;3.50;;;3.20;;
6529;SDS011;3298;42.688;23.366;2022-08-05T07:59:22;4.37;;;3.23;;
6529;SDS011;3298;42.688;23.366;2022-08-05T08:01:49;3.93;;;3.60;;
6529;SDS011;3298;42.688;23.366;2022-08-05T08:04:16;3.97;;;3.73;;
6529;SDS011;3298;42.688;23.366;2022-08-05T08:06:43;4.20;;;3.90;;
6529;SDS011;3298;42.688;23.366;2022-08-05T08:09:10;3.67;;;3.37;;
6529;SDS011;3298;42.688;23.366;2022-08-05T08:11:37;5.30;;;3.27;;
6529;SDS011;3298;42.688;23.366;2022-08-05T08:14:05;3.83;;;3.53;;
6529;SDS011;3298;42.688;23.366;2022-08-05T08:16:32;6.67;;;3.17;;
6529;SDS011;3298;42.688;23.366;2022-08-05T08:18:58;3.93;;;3.50;;
6529;SDS011;3298;42.688;23.366;2022-08-05T08:21:25;5.17;;;3.47;;
6529;SDS011;3298;42.688;23.366;2022-08-05T08:23:52;4.93;;;4.57;;
6529;SDS011;3298;42.688;23.366;2022-08-05T08:26:19;5.80;;;3.23;;
6529;SDS011;3298;42.688;23.366;2022-08-05T08:28:46;3.73;;;3.30;;
6529;SDS011;3298;42.688;23.366;2022-08-05T08:31:14;3.33;;;3.03;;
6529;SDS011;3298;42.688;23.366;2022-08-05T08:33:42;4.63;;;3.43;;
6529;SDS011;3298;42.688;23.366;2022-08-05T08:36:09;4.43;;;3.03;;
6529;SDS011;3298;42.688;23.366;2022-08-05T08:38:36;5.93;;;3.20;;
6529;SDS011;3298;42.688;23.366;2022-08-05T08:41:04;3.33;;;3.00;;
6529;SDS011;3298;42.688;23.366;2022-08-05T08:43:32;4.40;;;4.00;;
6529;SDS011;3298;42.688;23.366;2022-08-05T08:46:01;4.13;;;3.13;;
6529;SDS011;3298;42.688;23.366;2022-08-05T08:48:30;6.97;;;3.00;;
6529;SDS011;3298;42.688;23.366;2022-08-05T08:51:00;3.70;;;3.40;;
6529;SDS011;3298;42.688;23.366;2022-08-05T08:53:29;3.13;;;2.73;;
6529;SDS011;3298;42.688;23.366;2022-08-05T08:56:01;2.73;;;2.53;;
6529;SDS011;3298;42.688;23.366;2022-08-05T08:58:28;3.10;;;2.87;;
6529;SDS011;3298;42.688;23.366;2022-08-05T09:00:56;3.37;;;3.00;;
6529;SDS011;3298;42.688;23.366;2022-08-05T09:03:23;4.67;;;2.73;;
6529;SDS011;3298;42.688;23.366;2022-08-05T09:05:51;2.60;;;2.40;;
6529;SDS011;3298;42.688;23.366;2022-08-05T09:08:18;4.20;;;3.20;;
6529;SDS011;3298;42.688;23.366;2022-08-05T09:10:45;2.87;;;2.73;;
6529;SDS011;3298;42.688;23.366;2022-08-05T09:13:12;2.93;;;2.73;;
6529;SDS011;3298;42.688;23.366;2022-08-05T09:15:39;2.27;;;2.17;;
6529;SDS011;3298;42.688;23.366;2022-08-05T09:18:06;2.37;;;2.27;;
6529;SDS011;3298;42.688;23.366;2022-08-05T09:20:34;3.67;;;2.10;;
6529;SDS011;3298;42.688;23.366;2022-08-05T09:23:09;3.73;;;2.00;;
6529;SDS011;3298;42.688;23.366;2022-08-05T09:25:38;2.20;;;1.57;;
6529;SDS011;3298;42.688;23.366;2022-08-05T09:28:11;4.40;;;1.80;;
6529;SDS011;3298;42.688;23.366;2022-08-05T09:30:41;2.33;;;2.23;;
6529;SDS011;3298;42.688;23.366;2022-08-05T09:33:09;2.10;;;1.77;;
6529;SDS011;3298;42.688;23.366;2022-08-05T09:35:36;2.00;;;1.90;;
6529;SDS011;3298;42.688;23.366;2022-08-05T09:38:05;3.10;;;2.20;;
6529;SDS011;3298;42.688;23.366;2022-08-05T09:40:34;2.10;;;2.00;;
6529;SDS011;3298;42.688;23.366;2022-08-05T09:43:03;1.87;;;1.77;;
6529;SDS011;3298;42.688;23.366;2022-08-05T09:45:35;1.80;;;1.70;;
6529;SDS011;3298;42.688;23.366;2022-08-05T09:48:22;2.17;;;2.08;;
6529;SDS011;3298;42.688;23.366;2022-08-05T09:50:53;2.00;;;1.90;;
6529;SDS011;3298;42.688;23.366;2022-08-05T09:53:22;1.90;;;1.80;;
6529;SDS011;3298;42.688;23.366;2022-08-05T09:55:51;1.80;;;1.70;;
6529;SDS011;3298;42.688;23.366;2022-08-05T09:58:19;2.00;;;1.90;;
6529;SDS011;3298;42.688;23.366;2022-08-05T10:00:53;2.40;;;2.30;;
6529;SDS011;3298;42.688;23.366;2022-08-05T10:03:23;2.92;;;2.08;;
6529;SDS011;3298;42.688;23.366;2022-08-05T10:05:59;3.80;;;1.83;;
6529;SDS011;3298;42.688;23.366;2022-08-05T10:08:30;2.10;;;2.03;;
6529;SDS011;3298;42.688;23.366;2022-08-05T10:10:59;2.03;;;1.92;;
6529;SDS011;3298;42.688;23.366;2022-08-05T10:13:29;2.08;;;1.98;;
6529;SDS011;3298;42.688;23.366;2022-08-05T10:15:57;2.00;;;1.90;;
6529;SDS011;3298;42.688;23.366;2022-08-05T10:18:24;3.22;;;2.20;;
6529;SDS011;3298;42.688;23.366;2022-08-05T10:20:52;1.75;;;1.65;;
6529;SDS011;3298;42.688;23.366;2022-08-05T10:23:21;2.50;;;2.22;;
6529;SDS011;3298;42.688;23.366;2022-08-05T10:25:50;2.10;;;2.00;;
6529;SDS011;3298;42.688;23.366;2022-08-05T10:28:18;2.15;;;2.05;;
6529;SDS011;3298;42.688;23.366;2022-08-05T10:30:45;2.05;;;1.70;;
6529;SDS011;3298;42.688;23.366;2022-08-05T10:33:12;2.47;;;2.22;;
6529;SDS011;3298;42.688;23.366;2022-08-05T10:35:39;4.75;;;1.70;;
6529;SDS011;3298;42.688;23.366;2022-08-05T10:38:06;3.83;;;2.13;;
6529;SDS011;3298;42.688;23.366;2022-08-05T10:40:35;2.97;;;2.22;;
6529;SDS011;3298;42.688;23.366;2022-08-05T10:43:10;2.08;;;1.98;;
6529;SDS011;3298;42.688;23.366;2022-08-05T10:45:53;2.30;;;2.08;;
6529;SDS011;3298;42.688;23.366;2022-08-05T10:48:27;2.00;;;1.90;;
6529;SDS011;3298;42.688;23.366;2022-08-05T10:51:00;1.52;;;1.52;;
6529;SDS011;3298;42.688;23.366;2022-08-05T10:53:32;3.38;;;1.90;;
6529;SDS011;3298;42.688;23.366;2022-08-05T10:56:05;2.58;;;2.42;;
6529;SDS011;3298;42.688;23.366;2022-08-05T10:58:33;2.45;;;2.30;;
6529;SDS011;3298;42.688;23.366;2022-08-05T11:01:05;2.78;;;1.73;;
6529;SDS011;3298;42.688;23.366;2022-08-05T11:03:32;2.95;;;2.05;;
6529;SDS011;3298;42.688;23.366;2022-08-05T11:06:07;2.92;;;1.88;;
6529;SDS011;3298;42.688;23.366;2022-08-05T11:08:35;5.75;;;2.00;;
6529;SDS011;3298;42.688;23.366;2022-08-05T11:14:00;2.60;;;2.42;;
6529;SDS011;3298;42.688;23.366;2022-08-05T11:16:29;2.15;;;2.05;;
6529;SDS011;3298;42.688;23.366;2022-08-05T11:21:53;3.15;;;2.08;;
6529;SDS011;3298;42.688;23.366;2022-08-05T11:24:20;2.38;;;1.83;;
6529;SDS011;3298;42.688;23.366;2022-08-05T11:26:48;2.00;;;1.90;;
6529;SDS011;3298;42.688;23.366;2022-08-05T11:29:34;2.08;;;2.00;;
6529;SDS011;3298;42.688;23.366;2022-08-05T11:34:52;1.75;;;1.75;;
6529;SDS011;3298;42.688;23.366;2022-08-05T11:37:40;3.33;;;2.30;;
6529;SDS011;3298;42.688;23.366;2022-08-05T11:40:07;1.95;;;1.85;;
6529;SDS011;3298;42.688;23.366;2022-08-05T11:42:35;2.60;;;1.73;;
6529;SDS011;3298;42.688;23.366;2022-08-05T11:45:06;2.30;;;2.15;;
6529;SDS011;3298;42.688;23.366;2022-08-05T11:47:35;2.28;;;2.17;;
6529;SDS011;3298;42.688;23.366;2022-08-05T11:50:03;1.90;;;1.80;;
6529;SDS011;3298;42.688;23.366;2022-08-05T11:52:30;1.90;;;1.80;;
6529;SDS011;3298;42.688;23.366;2022-08-05T11:54:57;3.53;;;1.90;;
6529;SDS011;3298;42.688;23.366;2022-08-05T11:57:28;2.50;;;2.40;;
6529;SDS011;3298;42.688;23.366;2022-08-05T11:59:55;2.10;;;2.00;;
6529;SDS011;3298;42.688;23.366;2022-08-05T12:02:23;2.40;;;2.22;;
6529;SDS011;3298;42.688;23.366;2022-08-05T12:04:53;2.22;;;2.00;;
6529;SDS011;3298;42.688;23.366;2022-08-05T12:07:19;2.55;;;2.35;;
6529;SDS011;3298;42.688;23.366;2022-08-05T12:09:47;2.78;;;2.28;;
6529;SDS011;3298;42.688;23.366;2022-08-05T12:12:21;3.85;;;2.28;;
6529;SDS011;3298;42.688;23.366;2022-08-05T12:14:48;3.60;;;2.00;;
6529;SDS011;3298;42.688;23.366;2022-08-05T12:17:15;2.38;;;2.28;;
6529;SDS011;3298;42.688;23.366;2022-08-05T12:19:43;1.95;;;1.85;;
6529;SDS011;3298;42.688;23.366;2022-08-05T12:22:12;2.28;;;2.17;;
6529;SDS011;3298;42.688;23.366;2022-08-05T12:24:40;2.55;;;2.35;;
6529;SDS011;3298;42.688;23.366;2022-08-05T12:27:08;4.10;;;2.20;;
6529;SDS011;3298;42.688;23.366;2022-08-05T12:29:35;3.97;;;2.42;;
6529;SDS011;3298;42.688;23.366;2022-08-05T12:32:02;2.42;;;1.92;;
6529;SDS011;3298;42.688;23.366;2022-08-05T12:34:32;2.53;;;2.33;;
6529;SDS011;3298;42.688;23.366;2022-08-05T12:37:01;3.53;;;2.30;;
6529;SDS011;3298;42.688;23.366;2022-08-05T12:39:36;2.80;;;1.83;;
6529;SDS011;3298;42.688;23.366;2022-08-05T12:42:07;2.13;;;2.03;;
6529;SDS011;3298;42.688;23.366;2022-08-05T12:44:37;2.42;;;2.33;;
6529;SDS011;3298;42.688;23.366;2022-08-05T12:47:05;2.90;;;2.70;;
6529;SDS011;3298;42.688;23.366;2022-08-05T12:49:41;2.03;;;1.92;;
6529;SDS011;3298;42.688;23.366;2022-08-05T12:52:13;2.05;;;1.95;;
6529;SDS011;3298;42.688;23.366;2022-08-05T12:54:43;3.17;;;2.90;;
6529;SDS011;3298;42.688;23.366;2022-08-05T12:57:12;2.42;;;2.00;;
6529;SDS011;3298;42.688;23.366;2022-08-05T12:59:44;2.50;;;2.30;;
6529;SDS011;3298;42.688;23.366;2022-08-05T13:02:14;2.20;;;2.10;;
6529;SDS011;3298;42.688;23.366;2022-08-05T13:04:42;2.38;;;2.10;;
6529;SDS011;3298;42.688;23.366;2022-08-05T13:07:10;2.67;;;2.08;;
6529;SDS011;3298;42.688;23.366;2022-08-05T13:09:39;2.00;;;1.90;;
6529;SDS011;3298;42.688;23.366;2022-08-05T13:12:10;2.10;;;1.90;;
6529;SDS011;3298;42.688;23.366;2022-08-05T13:14:38;5.30;;;2.30;;
6529;SDS011;3298;42.688;23.366;2022-08-05T13:17:06;3.13;;;2.10;;
6529;SDS011;3298;42.688;23.366;2022-08-05T13:19:35;2.10;;;2.00;;
6529;SDS011;3298;42.688;23.366;2022-08-05T13:22:02;2.20;;;2.00;;
6529;SDS011;3298;42.688;23.366;2022-08-05T13:24:29;2.40;;;2.30;;
6529;SDS011;3298;42.688;23.366;2022-08-05T13:26:56;2.35;;;2.25;;
6529;SDS011;3298;42.688;23.366;2022-08-05T13:29:24;2.67;;;2.30;;
6529;SDS011;3298;42.688;23.366;2022-08-05T13:31:51;1.77;;;1.75;;
6529;SDS011;3298;42.688;23.366;2022-08-05T13:34:18;1.67;;;1.67;;
6529;SDS011;3298;42.688;23.366;2022-08-05T13:36:44;2.60;;;2.40;;
6529;SDS011;3298;42.688;23.366;2022-08-05T13:39:11;2.22;;;1.98;;
6529;SDS011;3298;42.688;23.366;2022-08-05T13:41:38;2.10;;;2.00;;
6529;SDS011;3298;42.688;23.366;2022-08-05T13:44:05;3.92;;;1.85;;
6529;SDS011;3298;42.688;23.366;2022-08-05T13:46:34;1.83;;;1.73;;
6529;SDS011;3298;42.688;23.366;2022-08-05T13:49:01;2.05;;;1.95;;
6529;SDS011;3298;42.688;23.366;2022-08-05T13:51:28;2.13;;;2.00;;
6529;SDS011;3298;42.688;23.366;2022-08-05T13:53:56;2.33;;;2.22;;
6529;SDS011;3298;42.688;23.366;2022-08-05T13:56:24;2.10;;;2.00;;
6529;SDS011;3298;42.688;23.366;2022-08-05T13:58:50;2.00;;;1.90;;
6529;SDS011;3298;42.688;23.366;2022-08-05T14:01:17;1.90;;;1.80;;
6529;SDS011;3298;42.688;23.366;2022-08-05T14:03:46;1.85;;;1.80;;
6529;SDS011;3298;42.688;23.366;2022-08-05T14:06:30;2.22;;;1.95;;
6529;SDS011;3298;42.688;23.366;2022-08-05T14:08:57;8.70;;;8.13;;
6529;SDS011;3298;42.688;23.366;2022-08-05T14:11:25;2.33;;;2.22;;
6529;SDS011;3298;42.688;23.366;2022-08-05T14:13:52;1.80;;;1.77;;
6529;SDS011;3298;42.688;23.366;2022-08-05T14:16:19;1.73;;;1.73;;
6529;SDS011;3298;42.688;23.366;2022-08-05T14:18:47;1.88;;;1.77;;
6529;SDS011;3298;42.688;23.366;2022-08-05T14:21:14;1.63;;;1.50;;
6529;SDS011;3298;42.688;23.366;2022-08-05T14:23:40;1.40;;;1.40;;
6529;SDS011;3298;42.688;23.366;2022-08-05T14:26:07;1.85;;;1.85;;
6529;SDS011;3298;42.688;23.366;2022-08-05T14:28:34;3.50;;;1.98;;
6529;SDS011;3298;42.688;23.366;2022-08-05T14:31:01;2.58;;;1.95;;
6529;SDS011;3298;42.688;23.366;2022-08-05T14:33:27;3.08;;;1.92;;
6529;SDS011;3298;42.688;23.366;2022-08-05T14:35:57;3.08;;;1.88;;
6529;SDS011;3298;42.688;23.366;2022-08-05T14:38:23;2.05;;;1.95;;
6529;SDS011;3298;42.688;23.366;2022-08-05T14:40:50;2.25;;;1.85;;
6529;SDS011;3298;42.688;23.366;2022-08-05T14:43:17;1.70;;;1.60;;
6529;SDS011;3298;42.688;23.366;2022-08-05T14:45:44;8.40;;;2.17;;
6529;SDS011;3298;42.688;23.366;2022-08-05T14:48:10;2.67;;;1.65;;
6529;SDS011;3298;42.688;23.366;2022-08-05T14:50:37;1.90;;;1.80;;
6529;SDS011;3298;42.688;23.366;2022-08-05T14:53:05;2.75;;;2.10;;
6529;SDS011;3298;42.688;23.366;2022-08-05T14:55:32;1.50;;;1.50;;
6529;SDS011;3298;42.688;23.366;2022-08-05T14:57:59;1.80;;;1.70;;
6529;SDS011;3298;42.688;23.366;2022-08-05T15:00:26;1.70;;;1.70;;
6529;SDS011;3298;42.688;23.366;2022-08-05T15:02:53;3.88;;;2.05;;
6529;SDS011;3298;42.688;23.366;2022-08-05T15:05:19;1.63;;;1.52;;
6529;SDS011;3298;42.688;23.366;2022-08-05T15:07:46;2.50;;;2.30;;
6529;SDS011;3298;42.688;23.366;2022-08-05T15:10:14;5.35;;;2.08;;
6529;SDS011;3298;42.688;23.366;2022-08-05T15:12:41;1.88;;;1.77;;
6529;SDS011;3298;42.688;23.366;2022-08-05T15:15:08;2.25;;;2.15;;
6529;SDS011;3298;42.688;23.366;2022-08-05T15:17:36;1.90;;;1.90;;